createdAt,value
2024-03-13T00:01:30.474Z,15.37
2024-03-13T00:04:19.152Z,14.90
2024-03-13T00:07:06.580Z,15.47
2024-03-13T00:09:55.512Z,14.73
2024-03-13T00:12:44.103Z,14.90
2024-03-13T00:15:44.379Z,15.07
2024-03-13T00:18:50.403Z,14.17
2024-03-13T00:21:42.127Z,14.53
2024-03-13T00:24:29.695Z,15.17
2024-03-13T00:27:17.452Z,15.60
2024-03-13T00:30:11.469Z,15.10
2024-03-13T00:32:58.919Z,14.43
2024-03-13T00:35:59.074Z,14.43
2024-03-13T00:38:49.914Z,14.70
2024-03-13T00:42:04.245Z,13.80
2024-03-13T00:45:16.610Z,14.07
2024-03-13T00:48:22.824Z,13.57
2024-03-13T00:51:41.774Z,14.10
2024-03-13T00:54:54.011Z,14.30
2024-03-13T00:58:16.080Z,13.93
2024-03-13T01:01:41.288Z,13.80
2024-03-13T01:05:02.975Z,15.07
2024-03-13T01:08:27.693Z,14.33
2024-03-13T01:11:53.700Z,15.17
2024-03-13T01:15:02.737Z,14.33
2024-03-13T01:18:18.286Z,14.43
2024-03-13T01:21:05.893Z,14.23
2024-03-13T01:23:53.470Z,14.23
2024-03-13T01:26:41.095Z,14.83
2024-03-13T01:29:28.680Z,13.90
2024-03-13T01:32:16.726Z,13.17
2024-03-13T01:35:04.290Z,13.90
2024-03-13T01:37:59.543Z,13.67
2024-03-13T01:41:08.477Z,13.50
2024-03-13T01:44:15.654Z,13.40
2024-03-13T01:47:41.502Z,14.90
2024-03-13T01:50:47.690Z,14.37
2024-03-13T01:53:55.945Z,15.53
2024-03-13T01:56:59.292Z,15.90
2024-03-13T02:00:05.180Z,16.43
2024-03-13T02:02:53.436Z,16.50
2024-03-13T02:05:43.639Z,15.93
2024-03-13T02:08:31.544Z,16.73
2024-03-13T02:11:19.038Z,16.37
2024-03-13T02:14:06.901Z,17.20
2024-03-13T02:16:54.310Z,16.93
2024-03-13T02:19:42.116Z,18.13
2024-03-13T02:22:29.860Z,18.37
2024-03-13T02:25:17.433Z,18.30
2024-03-13T02:28:04.948Z,17.90
2024-03-13T02:30:52.313Z,17.77
2024-03-13T02:33:40.519Z,18.57
2024-03-13T02:36:27.729Z,18.90
2024-03-13T02:39:19.448Z,18.10
2024-03-13T02:42:08.629Z,18.23
2024-03-13T02:44:56.798Z,17.00
2024-03-13T02:47:45.501Z,17.07
2024-03-13T02:50:33.255Z,17.17
2024-03-13T02:53:20.459Z,16.13
2024-03-13T02:56:11.300Z,16.47
2024-03-13T02:58:58.997Z,16.20
2024-03-13T03:01:46.414Z,16.87
2024-03-13T03:04:33.920Z,16.67
2024-03-13T03:07:21.227Z,16.80
2024-03-13T03:10:08.545Z,16.00
2024-03-13T03:13:06.136Z,17.13
2024-03-13T03:15:53.519Z,16.53
2024-03-13T03:18:40.965Z,17.47
2024-03-13T03:21:28.406Z,16.80
2024-03-13T03:24:15.927Z,16.50
2024-03-13T03:27:03.577Z,16.30
2024-03-13T03:29:51.824Z,17.83
2024-03-13T03:32:39.687Z,16.33
2024-03-13T03:35:28.942Z,17.70
2024-03-13T03:38:16.544Z,17.17
2024-03-13T03:41:04.005Z,17.23
2024-03-13T03:43:51.765Z,18.07
2024-03-13T03:46:41.400Z,17.90
2024-03-13T03:49:28.909Z,16.90
2024-03-13T03:52:16.569Z,16.50
2024-03-13T03:55:04.535Z,17.07
2024-03-13T03:57:52.141Z,16.67
2024-03-13T04:00:39.537Z,17.67
2024-03-13T04:03:27.147Z,16.77
2024-03-13T04:06:18.502Z,16.77
2024-03-13T04:09:15.953Z,16.80
2024-03-13T04:12:04.145Z,15.77
2024-03-13T04:14:52.039Z,16.47
2024-03-13T04:17:40.826Z,15.03
2024-03-13T04:20:28.003Z,14.10
2024-03-13T04:23:15.329Z,13.97
2024-03-13T04:26:06.201Z,13.00
2024-03-13T04:28:54.187Z,13.47
2024-03-13T04:31:41.833Z,13.77
2024-03-13T04:34:30.757Z,12.40
2024-03-13T04:37:18.504Z,12.70
2024-03-13T04:40:09.417Z,12.87
2024-03-13T04:42:58.468Z,12.13
2024-03-13T04:45:46.549Z,13.17
2024-03-13T04:48:34.001Z,12.77
2024-03-13T04:51:21.530Z,13.07
2024-03-13T04:54:09.347Z,12.93
2024-03-13T04:56:57.107Z,12.63
2024-03-13T04:59:44.475Z,13.37
2024-03-13T05:02:31.622Z,13.63
2024-03-13T05:05:19.299Z,13.20
2024-03-13T05:08:09.510Z,13.53
2024-03-13T05:10:57.941Z,14.30
2024-03-13T05:13:47.994Z,14.10
2024-03-13T05:16:35.554Z,12.97
2024-03-13T05:19:24.166Z,13.67
2024-03-13T05:22:12.032Z,13.13
2024-03-13T05:25:02.422Z,13.03
2024-03-13T05:27:50.844Z,12.93
2024-03-13T05:30:39.158Z,12.97
2024-03-13T05:33:26.660Z,13.27
2024-03-13T05:36:14.311Z,13.30
2024-03-13T05:39:01.827Z,14.00
2024-03-13T05:41:49.088Z,12.80
2024-03-13T05:44:36.290Z,13.37
2024-03-13T05:47:23.468Z,13.43
2024-03-13T05:50:11.486Z,13.43
2024-03-13T05:52:59.305Z,13.97
2024-03-13T05:55:47.296Z,13.60
2024-03-13T05:58:34.864Z,13.77
2024-03-13T06:01:28.238Z,14.63
2024-03-13T06:04:17.999Z,13.27
2024-03-13T06:07:07.222Z,13.33
2024-03-13T06:09:54.650Z,13.80
2024-03-13T06:12:42.207Z,13.07
2024-03-13T06:15:30.880Z,14.40
2024-03-13T06:18:19.677Z,14.80
2024-03-13T06:21:08.421Z,13.43
2024-03-13T06:24:01.528Z,15.50
2024-03-13T06:26:51.839Z,14.50
2024-03-13T06:29:58.649Z,13.33
2024-03-13T06:32:46.709Z,14.30
2024-03-13T06:35:34.509Z,14.90
2024-03-13T06:38:23.656Z,14.97
2024-03-13T06:41:11.591Z,14.03
2024-03-13T06:43:59.045Z,13.73
2024-03-13T06:46:47.336Z,14.57
2024-03-13T06:49:34.759Z,16.20
2024-03-13T06:52:22.046Z,15.13
2024-03-13T06:55:09.313Z,14.83
2024-03-13T06:57:57.025Z,14.97
2024-03-13T07:00:44.879Z,15.37
2024-03-13T07:03:32.086Z,15.43
2024-03-13T07:06:19.958Z,14.43
2024-03-13T07:09:08.664Z,14.37
2024-03-13T07:11:58.692Z,15.47
2024-03-13T07:14:46.888Z,15.77
2024-03-13T07:17:34.275Z,15.60
2024-03-13T07:20:22.182Z,15.33
2024-03-13T07:23:14.213Z,14.67
2024-03-13T07:26:02.168Z,14.70
2024-03-13T07:28:49.921Z,14.50
2024-03-13T07:31:40.772Z,14.70
2024-03-13T07:34:28.554Z,15.20
2024-03-13T07:37:16.010Z,14.17
2024-03-13T07:40:04.560Z,14.40
2024-03-13T07:42:53.148Z,14.53
2024-03-13T07:45:44.390Z,14.43
2024-03-13T07:48:31.808Z,13.83
2024-03-13T07:51:19.039Z,13.17
2024-03-13T07:54:06.376Z,13.37
2024-03-13T07:56:54.018Z,12.67
2024-03-13T07:59:46.570Z,13.83
2024-03-13T08:02:33.822Z,13.10
2024-03-13T08:05:21.362Z,13.77
2024-03-13T09:06:50.866Z,13.83
2024-03-13T09:09:41.231Z,13.77
2024-03-13T09:12:29.260Z,13.73
2024-03-13T09:15:16.577Z,13.30
2024-03-13T09:18:04.901Z,13.53
2024-03-13T09:20:52.315Z,14.10
2024-03-13T09:23:39.940Z,13.13
2024-03-13T09:26:28.182Z,12.97
2024-03-13T09:29:15.783Z,12.33
2024-03-13T09:32:03.523Z,11.67
2024-03-13T09:34:52.095Z,12.23
2024-03-13T09:37:39.544Z,12.87
2024-03-13T09:40:27.115Z,13.23
2024-03-13T09:43:18.904Z,13.40
2024-03-13T09:46:08.438Z,14.23
2024-03-13T09:48:58.554Z,14.60
2024-03-13T09:51:48.900Z,13.77
2024-03-13T09:54:37.083Z,14.00
2024-03-13T09:57:27.018Z,13.93
2024-03-13T10:00:20.994Z,14.43
2024-03-13T10:03:23.148Z,13.30
2024-03-13T10:06:15.584Z,13.33
2024-03-13T10:09:13.239Z,13.97
2024-03-13T10:12:03.688Z,14.63
2024-03-13T10:14:53.963Z,14.20
2024-03-13T10:17:51.062Z,13.47
2024-03-13T10:20:51.710Z,13.30
2024-03-13T10:23:44.288Z,12.93
2024-03-13T10:26:32.693Z,13.30
2024-03-13T10:29:20.922Z,13.37
2024-03-13T10:32:10.991Z,12.83
2024-03-13T10:34:59.325Z,13.30
2024-03-13T10:37:48.951Z,13.00
2024-03-13T10:40:36.586Z,12.50
2024-03-13T10:43:24.045Z,13.33
2024-03-13T10:46:12.877Z,12.97
2024-03-13T10:49:01.601Z,12.93
2024-03-13T10:51:49.144Z,14.37
2024-03-13T10:54:36.726Z,15.17
2024-03-13T10:57:25.181Z,14.57
2024-03-13T11:00:13.259Z,14.20
2024-03-13T11:03:02.462Z,13.60
2024-03-13T11:05:52.100Z,14.40
2024-03-13T11:08:39.378Z,14.13
2024-03-13T11:11:28.713Z,14.30
2024-03-13T11:14:19.017Z,14.23
2024-03-13T11:17:08.574Z,14.23
2024-03-13T11:20:09.157Z,13.47
2024-03-13T11:23:21.883Z,14.50
2024-03-13T11:26:12.749Z,13.87
2024-03-13T11:29:04.060Z,14.17
2024-03-13T11:31:53.852Z,13.67
2024-03-13T11:34:44.343Z,13.63
2024-03-13T11:37:31.681Z,13.57
2024-03-13T11:40:19.767Z,15.00
2024-03-13T11:43:10.637Z,13.10
2024-03-13T11:46:00.897Z,12.90
2024-03-13T11:48:48.610Z,12.17
2024-03-13T11:51:37.775Z,12.27
2024-03-13T11:54:47.653Z,12.33
2024-03-13T11:58:38.469Z,12.20
2024-03-13T12:01:27.810Z,12.43
2024-03-13T12:04:22.336Z,12.93
2024-03-13T12:07:18.941Z,13.40
2024-03-13T12:10:06.603Z,12.90
2024-03-13T12:13:24.847Z,13.20
2024-03-13T12:16:24.460Z,14.07
2024-03-13T12:19:28.151Z,15.63
2024-03-13T12:22:19.005Z,15.63
2024-03-13T12:25:32.866Z,15.83
2024-03-13T12:28:24.417Z,17.77
2024-03-13T12:31:19.025Z,19.17
2024-03-13T12:34:07.461Z,19.10
2024-03-13T12:36:54.917Z,18.50
2024-03-13T12:39:42.570Z,18.17
2024-03-13T12:42:31.073Z,18.23
2024-03-13T12:45:19.074Z,17.67
2024-03-13T12:48:10.948Z,18.43
2024-03-13T12:50:59.694Z,18.23
2024-03-13T12:53:46.940Z,19.10
2024-03-13T12:56:34.906Z,18.73
2024-03-13T12:59:23.215Z,18.37
2024-03-13T13:02:14.530Z,18.77
2024-03-13T13:05:02.100Z,18.73
2024-03-13T13:08:10.854Z,19.03
2024-03-13T13:10:59.304Z,20.37
2024-03-13T13:13:47.834Z,19.40
2024-03-13T13:16:35.444Z,19.93
2024-03-13T13:19:22.720Z,19.53
2024-03-13T13:22:10.280Z,20.37
2024-03-13T13:24:57.765Z,19.67
2024-03-13T13:27:50.685Z,18.20
2024-03-13T13:30:42.403Z,17.43
2024-03-13T13:33:29.889Z,18.17
2024-03-13T13:36:19.657Z,18.07
2024-03-13T13:39:25.984Z,17.67
2024-03-13T13:42:14.005Z,17.67
2024-03-13T13:45:01.433Z,17.53
2024-03-13T13:47:49.504Z,16.57
2024-03-13T13:50:36.992Z,16.10
2024-03-13T13:53:24.589Z,15.60
2024-03-13T13:56:11.892Z,15.70
2024-03-13T13:58:59.111Z,15.33
2024-03-13T14:01:46.373Z,15.50
2024-03-13T14:04:33.795Z,16.00
2024-03-13T14:07:21.177Z,15.40
2024-03-13T14:10:12.399Z,17.40
2024-03-13T14:13:02.327Z,17.60
2024-03-13T14:15:50.934Z,18.13
2024-03-13T14:18:38.274Z,19.53
2024-03-13T14:21:25.969Z,18.90
2024-03-13T14:24:13.558Z,18.23
2024-03-13T14:27:01.362Z,17.80
2024-03-13T14:29:48.719Z,17.47
2024-03-13T14:32:36.465Z,18.00
2024-03-13T14:35:24.065Z,17.67
2024-03-13T14:38:11.775Z,17.83
2024-03-13T14:41:00.294Z,18.03
2024-03-13T14:43:48.166Z,17.47
2024-03-13T14:46:36.971Z,18.13
2024-03-13T14:49:24.360Z,17.17
2024-03-13T14:52:11.973Z,18.23
2024-03-13T14:54:59.371Z,18.17
2024-03-13T14:57:49.237Z,17.60
2024-03-13T15:00:37.715Z,17.63
2024-03-13T15:03:30.740Z,17.63
2024-03-13T15:06:18.110Z,18.20
2024-03-13T15:09:12.639Z,18.00
2024-03-13T15:12:00.134Z,17.47
2024-03-13T15:14:48.751Z,18.20
2024-03-13T15:17:43.408Z,17.97
2024-03-13T15:20:31.043Z,16.93
2024-03-13T15:23:18.426Z,17.27
2024-03-13T15:26:07.084Z,16.87
2024-03-13T15:28:54.628Z,17.07
2024-03-13T15:31:47.523Z,16.13
2024-03-13T15:34:34.848Z,17.13
2024-03-13T15:37:22.477Z,17.17
2024-03-13T15:40:15.783Z,18.03
2024-03-13T15:43:11.891Z,16.43
2024-03-13T15:45:59.478Z,16.73
2024-03-13T15:48:46.840Z,16.33
2024-03-13T15:51:35.177Z,17.03
2024-03-13T15:54:22.468Z,16.60
2024-03-13T15:57:09.884Z,16.77
2024-03-13T15:59:57.788Z,15.67
2024-03-13T16:03:16.155Z,16.27
2024-03-13T16:06:43.825Z,16.27
2024-03-13T16:10:09.015Z,15.83
2024-03-13T16:12:56.590Z,15.93
2024-03-13T16:15:49.819Z,16.17
2024-03-13T16:18:37.336Z,17.20
2024-03-13T16:21:48.058Z,16.73
2024-03-13T16:24:35.980Z,16.97
2024-03-13T16:27:42.903Z,17.40
2024-03-13T16:30:49.160Z,16.63
2024-03-13T16:33:42.260Z,18.40
2024-03-13T16:36:39.629Z,18.93
2024-03-13T16:39:48.360Z,20.40
2024-03-13T16:43:13.130Z,18.93
2024-03-13T16:46:08.353Z,18.67
2024-03-13T16:52:31.785Z,19.27
2024-03-13T16:55:52.926Z,19.00
2024-03-13T16:58:45.413Z,19.53
2024-03-13T17:01:37.993Z,20.00
2024-03-13T17:04:34.690Z,18.10
2024-03-13T17:07:24.602Z,20.20
2024-03-13T17:10:30.612Z,19.07
2024-03-13T17:13:35.317Z,18.97
2024-03-13T17:16:54.549Z,18.20
2024-03-13T17:19:44.987Z,18.43
2024-03-13T17:22:33.267Z,18.20
2024-03-13T17:25:25.291Z,18.63
2024-03-13T17:28:12.868Z,19.57
2024-03-13T17:31:00.289Z,18.47
2024-03-13T17:33:52.366Z,20.13
2024-03-13T17:36:39.866Z,19.57
2024-03-13T17:39:28.359Z,20.90
2024-03-13T17:42:16.020Z,20.57
2024-03-13T17:45:04.066Z,22.83
2024-03-13T17:47:51.500Z,21.43
2024-03-13T17:50:39.519Z,21.53
2024-03-13T17:53:27.077Z,20.50
2024-03-13T17:56:14.387Z,21.87
2024-03-13T17:59:02.277Z,20.90
2024-03-13T18:01:49.643Z,21.50
2024-03-13T18:04:36.970Z,21.40
2024-03-13T18:07:30.370Z,21.80
2024-03-13T18:10:21.349Z,21.23
2024-03-13T18:13:10.795Z,23.10
2024-03-13T18:15:58.013Z,22.40
2024-03-13T18:18:45.786Z,22.87
2024-03-13T18:21:33.999Z,22.53
2024-03-13T18:24:21.792Z,23.53
2024-03-13T18:27:09.747Z,23.07
2024-03-13T18:30:05.390Z,22.37
2024-03-13T18:32:54.281Z,23.10
2024-03-13T18:35:44.504Z,22.87
2024-03-13T18:38:32.119Z,24.10
2024-03-13T18:41:27.921Z,23.60
2024-03-13T18:44:33.441Z,23.03
2024-03-13T18:47:23.901Z,23.73
2024-03-13T18:50:33.800Z,23.87
2024-03-13T18:53:36.643Z,23.57
2024-03-13T18:56:26.476Z,22.87
2024-03-13T18:59:14.645Z,24.10
2024-03-13T19:02:07.786Z,24.40
2024-03-13T19:05:00.045Z,22.87
2024-03-13T19:07:50.937Z,23.30
2024-03-13T19:10:38.574Z,22.47
2024-03-13T19:16:57.331Z,21.40
2024-03-13T19:19:44.529Z,20.07
2024-03-13T19:22:32.005Z,20.17
2024-03-13T19:25:19.879Z,19.67
2024-03-13T19:28:10.665Z,20.03
2024-03-13T19:30:57.908Z,19.67
2024-03-13T19:33:45.484Z,20.03
2024-03-13T19:36:36.133Z,20.67
2024-03-13T19:39:24.799Z,19.70
2024-03-13T19:42:12.447Z,20.93
2024-03-13T19:45:02.711Z,19.67
2024-03-13T19:47:50.018Z,20.30
2024-03-13T19:50:52.050Z,20.63
2024-03-13T19:53:54.619Z,21.10
2024-03-13T19:56:58.471Z,20.43
2024-03-13T19:59:48.626Z,20.07
2024-03-13T20:02:54.826Z,20.57
2024-03-13T20:06:23.241Z,20.43
2024-03-13T20:09:32.705Z,19.43
2024-03-13T20:12:23.218Z,19.67
2024-03-13T20:15:17.005Z,19.77
2024-03-13T20:18:04.677Z,19.07
2024-03-13T20:20:52.388Z,20.07
2024-03-13T20:23:55.075Z,19.20
2024-03-13T20:27:20.187Z,18.87
2024-03-13T20:33:44.458Z,19.57
2024-03-13T20:36:50.361Z,20.20
2024-03-13T20:43:43.487Z,19.93
2024-03-13T20:46:49.861Z,21.40
2024-03-13T20:49:40.309Z,20.57
2024-03-13T20:52:28.646Z,22.13
2024-03-13T20:55:18.746Z,20.97
2024-03-13T20:58:06.397Z,21.17
2024-03-13T21:04:03.160Z,20.80
2024-03-13T21:06:53.655Z,21.57
2024-03-13T21:09:41.260Z,22.27
2024-03-13T21:12:28.987Z,21.20
2024-03-13T21:15:16.731Z,22.07
2024-03-13T21:18:05.901Z,23.63
2024-03-13T21:20:55.739Z,22.33
2024-03-13T21:23:43.254Z,21.93
2024-03-13T21:26:31.013Z,22.03
2024-03-13T21:29:24.350Z,22.23
2024-03-13T21:32:11.968Z,21.73
2024-03-13T21:34:59.846Z,21.93
2024-03-13T21:37:48.482Z,21.37
2024-03-13T21:40:35.851Z,22.43
2024-03-13T21:43:23.546Z,21.50
2024-03-13T21:46:11.472Z,21.73
2024-03-13T21:48:59.130Z,22.53
2024-03-13T21:51:46.950Z,22.43
2024-03-13T21:54:55.134Z,22.70
2024-03-13T21:57:44.374Z,22.30
2024-03-13T22:00:31.822Z,21.70
2024-03-13T22:03:19.266Z,21.87
2024-03-13T22:06:07.689Z,22.13
2024-03-13T22:08:55.162Z,21.87
2024-03-13T22:11:42.623Z,22.07
2024-03-13T22:14:30.164Z,22.47
2024-03-13T22:17:17.528Z,21.30
2024-03-13T22:20:05.312Z,20.30
2024-03-13T22:22:52.532Z,21.07
2024-03-13T22:25:40.840Z,20.63
2024-03-13T22:28:28.099Z,21.67
2024-03-13T22:31:15.333Z,21.67
2024-03-13T22:34:03.762Z,20.73
2024-03-13T22:36:51.269Z,22.03
2024-03-13T22:39:38.564Z,21.83
2024-03-13T22:42:26.426Z,22.00
2024-03-13T22:45:36.798Z,22.67
2024-03-13T22:48:51.814Z,24.03
2024-03-13T22:51:39.115Z,23.73
2024-03-13T22:54:39.036Z,23.53
2024-03-13T22:57:26.274Z,24.43
2024-03-13T23:00:26.315Z,24.77
2024-03-13T23:03:32.760Z,26.50
2024-03-13T23:06:23.885Z,25.67
2024-03-13T23:09:11.296Z,24.67
2024-03-13T23:12:02.383Z,24.57
2024-03-13T23:14:49.723Z,24.87
2024-03-13T23:17:37.022Z,26.80
2024-03-13T23:20:49.289Z,23.37
2024-03-13T23:24:01.947Z,24.67
2024-03-13T23:26:52.362Z,25.10
2024-03-13T23:29:39.837Z,24.80
2024-03-13T23:32:51.397Z,25.90
2024-03-13T23:35:39.004Z,25.10
2024-03-13T23:38:45.637Z,24.67
2024-03-13T23:41:58.637Z,25.40
2024-03-13T23:44:48.978Z,25.50
2024-03-13T23:47:36.296Z,25.27
2024-03-13T23:50:25.987Z,26.00
2024-03-13T23:53:13.347Z,24.57
2024-03-13T23:56:03.080Z,25.53
2024-03-13T23:59:09.336Z,26.93
